sensor_id;sensor_type;location;lat;lon;timestamp;P1;durP1;ratioP1;P2;durP2;ratioP2
10473;SDS011;5284;50.446;7.904;2023-06-14T00:00:59;10.10;;;5.30;;
10473;SDS011;5284;50.446;7.904;2023-06-14T00:06:04;11.05;;;5.63;;
10473;SDS011;5284;50.446;7.904;2023-06-14T00:11:08;15.32;;;5.43;;
10473;SDS011;5284;50.446;7.904;2023-06-14T00:16:11;12.82;;;5.80;;
10473;SDS011;5284;50.446;7.904;2023-06-14T00:21:15;7.90;;;5.63;;
10473;SDS011;5284;50.446;7.904;2023-06-14T00:26:19;13.07;;;5.28;;
10473;SDS011;5284;50.446;7.904;2023-06-14T00:31:22;11.68;;;5.72;;
10473;SDS011;5284;50.446;7.904;2023-06-14T00:36:25;9.82;;;5.72;;
10473;SDS011;5284;50.446;7.904;2023-06-14T00:41:30;7.60;;;4.43;;
10473;SDS011;5284;50.446;7.904;2023-06-14T00:46:33;8.05;;;5.25;;
10473;SDS011;5284;50.446;7.904;2023-06-14T00:51:36;19.48;;;4.90;;
10473;SDS011;5284;50.446;7.904;2023-06-14T00:56:42;11.30;;;5.03;;
10473;SDS011;5284;50.446;7.904;2023-06-14T01:01:47;11.73;;;5.38;;
10473;SDS011;5284;50.446;7.904;2023-06-14T01:06:54;11.23;;;5.90;;
10473;SDS011;5284;50.446;7.904;2023-06-14T01:12:13;11.98;;;5.00;;
10473;SDS011;5284;50.446;7.904;2023-06-14T01:17:22;8.48;;;4.75;;
10473;SDS011;5284;50.446;7.904;2023-06-14T01:22:28;17.10;;;4.95;;
10473;SDS011;5284;50.446;7.904;2023-06-14T01:27:33;12.85;;;4.65;;
10473;SDS011;5284;50.446;7.904;2023-06-14T01:32:39;7.97;;;4.90;;
10473;SDS011;5284;50.446;7.904;2023-06-14T01:37:42;8.93;;;4.95;;
10473;SDS011;5284;50.446;7.904;2023-06-14T01:42:47;12.10;;;5.72;;
10473;SDS011;5284;50.446;7.904;2023-06-14T01:47:52;10.70;;;5.70;;
10473;SDS011;5284;50.446;7.904;2023-06-14T01:52:55;10.00;;;4.97;;
10473;SDS011;5284;50.446;7.904;2023-06-14T01:57:59;9.18;;;4.07;;
10473;SDS011;5284;50.446;7.904;2023-06-14T02:03:02;11.40;;;4.50;;
10473;SDS011;5284;50.446;7.904;2023-06-14T02:08:06;7.40;;;4.13;;
10473;SDS011;5284;50.446;7.904;2023-06-14T02:13:13;8.85;;;4.00;;
10473;SDS011;5284;50.446;7.904;2023-06-14T02:18:16;13.70;;;4.78;;
10473;SDS011;5284;50.446;7.904;2023-06-14T02:23:19;16.60;;;4.70;;
10473;SDS011;5284;50.446;7.904;2023-06-14T02:28:23;8.07;;;4.40;;
10473;SDS011;5284;50.446;7.904;2023-06-14T02:33:27;11.35;;;4.10;;
10473;SDS011;5284;50.446;7.904;2023-06-14T02:38:30;8.77;;;4.40;;
10473;SDS011;5284;50.446;7.904;2023-06-14T02:43:34;10.48;;;3.92;;
10473;SDS011;5284;50.446;7.904;2023-06-14T02:48:40;9.50;;;4.60;;
10473;SDS011;5284;50.446;7.904;2023-06-14T02:53:43;8.23;;;5.00;;
10473;SDS011;5284;50.446;7.904;2023-06-14T02:58:48;12.15;;;4.03;;
10473;SDS011;5284;50.446;7.904;2023-06-14T03:03:53;17.25;;;4.20;;
10473;SDS011;5284;50.446;7.904;2023-06-14T03:08:56;12.07;;;4.60;;
10473;SDS011;5284;50.446;7.904;2023-06-14T03:14:04;8.43;;;5.07;;
10473;SDS011;5284;50.446;7.904;2023-06-14T03:19:10;9.38;;;4.85;;
10473;SDS011;5284;50.446;7.904;2023-06-14T03:24:15;10.30;;;3.92;;
10473;SDS011;5284;50.446;7.904;2023-06-14T03:29:21;12.35;;;4.57;;
10473;SDS011;5284;50.446;7.904;2023-06-14T03:34:24;7.90;;;4.15;;
10473;SDS011;5284;50.446;7.904;2023-06-14T03:39:27;9.93;;;4.47;;
10473;SDS011;5284;50.446;7.904;2023-06-14T03:44:32;8.80;;;4.30;;
10473;SDS011;5284;50.446;7.904;2023-06-14T03:49:35;17.42;;;4.88;;
10473;SDS011;5284;50.446;7.904;2023-06-14T03:54:39;12.30;;;5.13;;
10473;SDS011;5284;50.446;7.904;2023-06-14T04:00:05;12.45;;;5.15;;
10473;SDS011;5284;50.446;7.904;2023-06-14T04:05:15;17.38;;;4.05;;
10473;SDS011;5284;50.446;7.904;2023-06-14T04:10:23;14.25;;;4.60;;
10473;SDS011;5284;50.446;7.904;2023-06-14T04:15:28;10.60;;;4.07;;
10473;SDS011;5284;50.446;7.904;2023-06-14T04:20:33;11.90;;;3.88;;
10473;SDS011;5284;50.446;7.904;2023-06-14T04:25:38;8.10;;;3.40;;
10473;SDS011;5284;50.446;7.904;2023-06-14T04:30:43;17.95;;;4.78;;
10473;SDS011;5284;50.446;7.904;2023-06-14T04:35:48;19.80;;;5.28;;
10473;SDS011;5284;50.446;7.904;2023-06-14T04:40:55;11.70;;;4.00;;
10473;SDS011;5284;50.446;7.904;2023-06-14T04:46:04;10.95;;;4.35;;
10473;SDS011;5284;50.446;7.904;2023-06-14T04:51:12;10.82;;;4.72;;
10473;SDS011;5284;50.446;7.904;2023-06-14T04:56:17;15.10;;;4.47;;
10473;SDS011;5284;50.446;7.904;2023-06-14T05:01:21;15.48;;;4.22;;
10473;SDS011;5284;50.446;7.904;2023-06-14T05:06:25;16.70;;;5.97;;
10473;SDS011;5284;50.446;7.904;2023-06-14T05:11:28;15.98;;;3.75;;
10473;SDS011;5284;50.446;7.904;2023-06-14T05:16:33;12.30;;;5.30;;
10473;SDS011;5284;50.446;7.904;2023-06-14T05:21:36;9.65;;;4.28;;
10473;SDS011;5284;50.446;7.904;2023-06-14T05:31:48;24.35;;;4.90;;
10473;SDS011;5284;50.446;7.904;2023-06-14T05:36:51;14.65;;;4.40;;
10473;SDS011;5284;50.446;7.904;2023-06-14T05:41:54;21.60;;;4.97;;
10473;SDS011;5284;50.446;7.904;2023-06-14T05:46:58;10.98;;;3.33;;
10473;SDS011;5284;50.446;7.904;2023-06-14T05:52:01;17.55;;;4.57;;
10473;SDS011;5284;50.446;7.904;2023-06-14T05:57:04;9.75;;;3.60;;
10473;SDS011;5284;50.446;7.904;2023-06-14T06:02:09;16.52;;;3.78;;
10473;SDS011;5284;50.446;7.904;2023-06-14T06:07:12;15.18;;;3.47;;
10473;SDS011;5284;50.446;7.904;2023-06-14T06:12:14;12.00;;;3.25;;
10473;SDS011;5284;50.446;7.904;2023-06-14T06:17:19;18.08;;;3.85;;
10473;SDS011;5284;50.446;7.904;2023-06-14T06:22:21;10.18;;;3.33;;
10473;SDS011;5284;50.446;7.904;2023-06-14T06:27:25;10.88;;;3.95;;
10473;SDS011;5284;50.446;7.904;2023-06-14T06:32:29;14.18;;;3.70;;
10473;SDS011;5284;50.446;7.904;2023-06-14T06:37:32;8.38;;;3.20;;
10473;SDS011;5284;50.446;7.904;2023-06-14T06:42:35;6.28;;;3.20;;
10473;SDS011;5284;50.446;7.904;2023-06-14T06:47:41;8.88;;;3.15;;
10473;SDS011;5284;50.446;7.904;2023-06-14T06:52:44;8.02;;;3.22;;
10473;SDS011;5284;50.446;7.904;2023-06-14T06:57:47;11.20;;;3.33;;
10473;SDS011;5284;50.446;7.904;2023-06-14T07:02:52;6.00;;;2.95;;
10473;SDS011;5284;50.446;7.904;2023-06-14T07:07:57;8.75;;;2.78;;
10473;SDS011;5284;50.446;7.904;2023-06-14T07:13:00;5.38;;;2.90;;
10473;SDS011;5284;50.446;7.904;2023-06-14T07:18:05;7.25;;;2.40;;
10473;SDS011;5284;50.446;7.904;2023-06-14T07:23:08;4.25;;;2.80;;
10473;SDS011;5284;50.446;7.904;2023-06-14T07:28:12;10.02;;;3.10;;
10473;SDS011;5284;50.446;7.904;2023-06-14T07:33:16;10.70;;;2.42;;
10473;SDS011;5284;50.446;7.904;2023-06-14T07:38:19;8.73;;;2.75;;
10473;SDS011;5284;50.446;7.904;2023-06-14T07:43:22;8.02;;;2.33;;
10473;SDS011;5284;50.446;7.904;2023-06-14T07:48:27;10.55;;;2.83;;
10473;SDS011;5284;50.446;7.904;2023-06-14T07:53:30;7.00;;;3.10;;
10473;SDS011;5284;50.446;7.904;2023-06-14T07:58:34;8.98;;;1.95;;
10473;SDS011;5284;50.446;7.904;2023-06-14T08:03:38;9.55;;;2.58;;
10473;SDS011;5284;50.446;7.904;2023-06-14T08:08:41;9.35;;;2.85;;
10473;SDS011;5284;50.446;7.904;2023-06-14T08:13:44;8.85;;;1.92;;
10473;SDS011;5284;50.446;7.904;2023-06-14T08:18:48;9.05;;;2.00;;
10473;SDS011;5284;50.446;7.904;2023-06-14T08:23:52;5.07;;;1.98;;
10473;SDS011;5284;50.446;7.904;2023-06-14T08:28:55;6.75;;;2.10;;
10473;SDS011;5284;50.446;7.904;2023-06-14T08:33:59;5.60;;;2.40;;
10473;SDS011;5284;50.446;7.904;2023-06-14T08:39:05;6.78;;;2.40;;
10473;SDS011;5284;50.446;7.904;2023-06-14T08:44:10;3.35;;;2.17;;
10473;SDS011;5284;50.446;7.904;2023-06-14T08:49:16;3.15;;;2.00;;
10473;SDS011;5284;50.446;7.904;2023-06-14T08:54:19;3.20;;;2.00;;
10473;SDS011;5284;50.446;7.904;2023-06-14T08:59:23;9.18;;;2.38;;
10473;SDS011;5284;50.446;7.904;2023-06-14T09:04:29;7.90;;;2.67;;
10473;SDS011;5284;50.446;7.904;2023-06-14T09:09:33;5.22;;;2.75;;
10473;SDS011;5284;50.446;7.904;2023-06-14T09:14:45;5.00;;;2.05;;
10473;SDS011;5284;50.446;7.904;2023-06-14T09:19:50;3.65;;;2.28;;
10473;SDS011;5284;50.446;7.904;2023-06-14T09:24:53;8.10;;;2.63;;
10473;SDS011;5284;50.446;7.904;2023-06-14T09:29:56;3.58;;;1.70;;
10473;SDS011;5284;50.446;7.904;2023-06-14T09:35:01;9.30;;;2.05;;
10473;SDS011;5284;50.446;7.904;2023-06-14T09:40:04;5.97;;;2.03;;
10473;SDS011;5284;50.446;7.904;2023-06-14T09:45:08;20.92;;;2.20;;
10473;SDS011;5284;50.446;7.904;2023-06-14T09:50:15;9.95;;;1.40;;
10473;SDS011;5284;50.446;7.904;2023-06-14T09:55:18;2.85;;;1.95;;
10473;SDS011;5284;50.446;7.904;2023-06-14T10:00:22;4.45;;;1.58;;
10473;SDS011;5284;50.446;7.904;2023-06-14T10:05:29;5.00;;;2.03;;
10473;SDS011;5284;50.446;7.904;2023-06-14T10:10:32;4.47;;;1.73;;
10473;SDS011;5284;50.446;7.904;2023-06-14T10:15:38;7.75;;;1.60;;
10473;SDS011;5284;50.446;7.904;2023-06-14T10:20:48;2.10;;;1.20;;
10473;SDS011;5284;50.446;7.904;2023-06-14T10:25:58;5.18;;;1.67;;
10473;SDS011;5284;50.446;7.904;2023-06-14T10:31:05;11.20;;;1.95;;
10473;SDS011;5284;50.446;7.904;2023-06-14T10:41:30;3.35;;;2.15;;
10473;SDS011;5284;50.446;7.904;2023-06-14T10:46:33;8.15;;;2.08;;
10473;SDS011;5284;50.446;7.904;2023-06-14T10:51:42;3.00;;;1.80;;
10473;SDS011;5284;50.446;7.904;2023-06-14T10:56:48;7.80;;;2.72;;
10473;SDS011;5284;50.446;7.904;2023-06-14T11:01:55;3.35;;;1.92;;
10473;SDS011;5284;50.446;7.904;2023-06-14T11:07:05;4.47;;;2.10;;
10473;SDS011;5284;50.446;7.904;2023-06-14T11:12:20;5.25;;;2.17;;
10473;SDS011;5284;50.446;7.904;2023-06-14T11:17:23;8.38;;;2.17;;
10473;SDS011;5284;50.446;7.904;2023-06-14T11:22:28;5.05;;;2.33;;
10473;SDS011;5284;50.446;7.904;2023-06-14T11:27:32;7.32;;;2.50;;
10473;SDS011;5284;50.446;7.904;2023-06-14T11:32:35;4.68;;;1.83;;
10473;SDS011;5284;50.446;7.904;2023-06-14T11:37:40;8.65;;;2.60;;
10473;SDS011;5284;50.446;7.904;2023-06-14T11:42:43;6.05;;;2.30;;
10473;SDS011;5284;50.446;7.904;2023-06-14T11:47:46;3.83;;;2.30;;
10473;SDS011;5284;50.446;7.904;2023-06-14T11:52:53;6.15;;;2.42;;
10473;SDS011;5284;50.446;7.904;2023-06-14T11:57:57;3.45;;;2.28;;
10473;SDS011;5284;50.446;7.904;2023-06-14T12:03:00;3.78;;;2.20;;
10473;SDS011;5284;50.446;7.904;2023-06-14T12:08:06;6.60;;;2.25;;
10473;SDS011;5284;50.446;7.904;2023-06-14T12:13:09;3.67;;;1.75;;
10473;SDS011;5284;50.446;7.904;2023-06-14T12:18:12;11.15;;;2.03;;
10473;SDS011;5284;50.446;7.904;2023-06-14T12:23:16;7.25;;;2.00;;
10473;SDS011;5284;50.446;7.904;2023-06-14T12:28:19;7.25;;;2.58;;
10473;SDS011;5284;50.446;7.904;2023-06-14T12:33:22;4.40;;;1.60;;
10473;SDS011;5284;50.446;7.904;2023-06-14T12:38:26;5.47;;;2.00;;
10473;SDS011;5284;50.446;7.904;2023-06-14T12:43:29;5.78;;;1.85;;
10473;SDS011;5284;50.446;7.904;2023-06-14T12:48:33;3.58;;;1.88;;
10473;SDS011;5284;50.446;7.904;2023-06-14T12:53:37;2.25;;;1.42;;
10473;SDS011;5284;50.446;7.904;2023-06-14T12:58:41;7.40;;;2.85;;
10473;SDS011;5284;50.446;7.904;2023-06-14T13:03:44;7.05;;;1.80;;
10473;SDS011;5284;50.446;7.904;2023-06-14T13:08:49;5.10;;;2.17;;
10473;SDS011;5284;50.446;7.904;2023-06-14T13:13:52;6.05;;;2.15;;
10473;SDS011;5284;50.446;7.904;2023-06-14T13:18:54;5.28;;;1.63;;
10473;SDS011;5284;50.446;7.904;2023-06-14T13:23:59;3.53;;;1.73;;
10473;SDS011;5284;50.446;7.904;2023-06-14T13:29:02;2.97;;;1.80;;
10473;SDS011;5284;50.446;7.904;2023-06-14T13:34:05;17.80;;;2.75;;
10473;SDS011;5284;50.446;7.904;2023-06-14T13:39:10;14.68;;;3.60;;
10473;SDS011;5284;50.446;7.904;2023-06-14T13:44:13;4.68;;;1.80;;
10473;SDS011;5284;50.446;7.904;2023-06-14T13:49:19;2.72;;;1.45;;
10473;SDS011;5284;50.446;7.904;2023-06-14T13:54:24;3.60;;;2.00;;
10473;SDS011;5284;50.446;7.904;2023-06-14T13:59:27;2.10;;;1.73;;
10473;SDS011;5284;50.446;7.904;2023-06-14T14:04:30;3.60;;;1.83;;
10473;SDS011;5284;50.446;7.904;2023-06-14T14:09:34;8.18;;;1.90;;
10473;SDS011;5284;50.446;7.904;2023-06-14T14:14:38;3.95;;;1.63;;
10473;SDS011;5284;50.446;7.904;2023-06-14T14:19:41;2.45;;;1.67;;
10473;SDS011;5284;50.446;7.904;2023-06-14T14:24:45;3.80;;;1.90;;
10473;SDS011;5284;50.446;7.904;2023-06-14T14:29:48;4.18;;;1.75;;
10473;SDS011;5284;50.446;7.904;2023-06-14T14:34:51;7.55;;;2.08;;
10473;SDS011;5284;50.446;7.904;2023-06-14T14:39:56;4.35;;;2.03;;
10473;SDS011;5284;50.446;7.904;2023-06-14T14:44:59;3.60;;;2.30;;
10473;SDS011;5284;50.446;7.904;2023-06-14T14:50:02;3.00;;;1.60;;
10473;SDS011;5284;50.446;7.904;2023-06-14T14:55:07;6.25;;;1.85;;
10473;SDS011;5284;50.446;7.904;2023-06-14T15:00:10;2.55;;;2.03;;
10473;SDS011;5284;50.446;7.904;2023-06-14T15:05:14;2.70;;;1.63;;
10473;SDS011;5284;50.446;7.904;2023-06-14T15:10:19;2.65;;;1.88;;
10473;SDS011;5284;50.446;7.904;2023-06-14T15:15:22;4.55;;;1.50;;
10473;SDS011;5284;50.446;7.904;2023-06-14T15:20:25;1.85;;;1.65;;
10473;SDS011;5284;50.446;7.904;2023-06-14T15:25:29;9.40;;;2.22;;
10473;SDS011;5284;50.446;7.904;2023-06-14T15:30:34;3.58;;;2.03;;
10473;SDS011;5284;50.446;7.904;2023-06-14T15:35:37;5.75;;;2.20;;
10473;SDS011;5284;50.446;7.904;2023-06-14T15:40:43;3.78;;;2.30;;
10473;SDS011;5284;50.446;7.904;2023-06-14T15:45:47;13.85;;;2.45;;
10473;SDS011;5284;50.446;7.904;2023-06-14T15:50:50;5.57;;;2.03;;
10473;SDS011;5284;50.446;7.904;2023-06-14T15:55:54;4.25;;;1.58;;
10473;SDS011;5284;50.446;7.904;2023-06-14T16:00:57;2.78;;;1.92;;
10473;SDS011;5284;50.446;7.904;2023-06-14T16:06:00;5.20;;;2.22;;
10473;SDS011;5284;50.446;7.904;2023-06-14T16:11:04;2.88;;;1.92;;
10473;SDS011;5284;50.446;7.904;2023-06-14T16:16:07;7.93;;;2.35;;
10473;SDS011;5284;50.446;7.904;2023-06-14T16:21:11;4.10;;;2.35;;
10473;SDS011;5284;50.446;7.904;2023-06-14T16:26:15;2.38;;;1.67;;
10473;SDS011;5284;50.446;7.904;2023-06-14T16:31:18;2.55;;;1.65;;
10473;SDS011;5284;50.446;7.904;2023-06-14T16:36:24;4.30;;;1.92;;
10473;SDS011;5284;50.446;7.904;2023-06-14T16:41:28;4.33;;;1.97;;
10473;SDS011;5284;50.446;7.904;2023-06-14T16:46:32;4.10;;;1.88;;
10473;SDS011;5284;50.446;7.904;2023-06-14T16:51:35;2.80;;;1.80;;
10473;SDS011;5284;50.446;7.904;2023-06-14T16:56:40;3.87;;;1.73;;
10473;SDS011;5284;50.446;7.904;2023-06-14T17:01:42;4.35;;;1.92;;
10473;SDS011;5284;50.446;7.904;2023-06-14T17:06:45;3.08;;;1.80;;
10473;SDS011;5284;50.446;7.904;2023-06-14T17:11:50;4.60;;;1.63;;
10473;SDS011;5284;50.446;7.904;2023-06-14T17:21:55;5.93;;;2.67;;
10473;SDS011;5284;50.446;7.904;2023-06-14T17:27:00;4.95;;;1.90;;
10473;SDS011;5284;50.446;7.904;2023-06-14T17:32:03;3.00;;;2.15;;
10473;SDS011;5284;50.446;7.904;2023-06-14T17:37:07;2.58;;;2.00;;
10473;SDS011;5284;50.446;7.904;2023-06-14T17:42:11;10.70;;;2.20;;
10473;SDS011;5284;50.446;7.904;2023-06-14T17:47:14;4.77;;;2.37;;
10473;SDS011;5284;50.446;7.904;2023-06-14T17:52:36;6.68;;;1.70;;
10473;SDS011;5284;50.446;7.904;2023-06-14T17:57:40;8.68;;;1.67;;
10473;SDS011;5284;50.446;7.904;2023-06-14T18:02:43;12.35;;;2.20;;
10473;SDS011;5284;50.446;7.904;2023-06-14T18:07:48;4.80;;;2.30;;
10473;SDS011;5284;50.446;7.904;2023-06-14T18:12:52;5.63;;;2.25;;
10473;SDS011;5284;50.446;7.904;2023-06-14T18:17:55;8.65;;;2.50;;
10473;SDS011;5284;50.446;7.904;2023-06-14T18:22:58;6.13;;;2.67;;
10473;SDS011;5284;50.446;7.904;2023-06-14T18:28:02;6.90;;;2.53;;
10473;SDS011;5284;50.446;7.904;2023-06-14T18:33:06;4.28;;;2.83;;
10473;SDS011;5284;50.446;7.904;2023-06-14T18:38:10;3.72;;;2.10;;
10473;SDS011;5284;50.446;7.904;2023-06-14T18:43:15;7.20;;;2.22;;
10473;SDS011;5284;50.446;7.904;2023-06-14T18:48:18;9.85;;;2.40;;
10473;SDS011;5284;50.446;7.904;2023-06-14T18:53:21;6.03;;;2.33;;
10473;SDS011;5284;50.446;7.904;2023-06-14T18:58:27;8.55;;;2.70;;
10473;SDS011;5284;50.446;7.904;2023-06-14T19:03:30;3.17;;;2.28;;
10473;SDS011;5284;50.446;7.904;2023-06-14T19:08:33;9.07;;;3.03;;
10473;SDS011;5284;50.446;7.904;2023-06-14T19:13:38;3.88;;;2.55;;
10473;SDS011;5284;50.446;7.904;2023-06-14T19:18:41;5.07;;;2.42;;
10473;SDS011;5284;50.446;7.904;2023-06-14T19:23:45;17.67;;;3.28;;
10473;SDS011;5284;50.446;7.904;2023-06-14T19:28:49;11.05;;;2.60;;
10473;SDS011;5284;50.446;7.904;2023-06-14T19:33:52;6.10;;;2.47;;
10473;SDS011;5284;50.446;7.904;2023-06-14T19:38:55;10.55;;;2.83;;
10473;SDS011;5284;50.446;7.904;2023-06-14T19:44:00;5.45;;;2.75;;
10473;SDS011;5284;50.446;7.904;2023-06-14T19:49:02;6.90;;;2.58;;
10473;SDS011;5284;50.446;7.904;2023-06-14T19:54:06;9.57;;;2.90;;
10473;SDS011;5284;50.446;7.904;2023-06-14T19:59:10;4.70;;;2.60;;
10473;SDS011;5284;50.446;7.904;2023-06-14T20:04:13;7.55;;;2.58;;
10473;SDS011;5284;50.446;7.904;2023-06-14T20:09:16;3.28;;;2.17;;
10473;SDS011;5284;50.446;7.904;2023-06-14T20:14:21;6.38;;;2.40;;
10473;SDS011;5284;50.446;7.904;2023-06-14T20:19:24;3.55;;;2.40;;
10473;SDS011;5284;50.446;7.904;2023-06-14T20:24:27;3.15;;;2.30;;
10473;SDS011;5284;50.446;7.904;2023-06-14T20:29:32;7.30;;;2.53;;
10473;SDS011;5284;50.446;7.904;2023-06-14T20:34:35;5.43;;;2.75;;
10473;SDS011;5284;50.446;7.904;2023-06-14T20:39:38;21.50;;;2.92;;
10473;SDS011;5284;50.446;7.904;2023-06-14T20:44:43;11.00;;;2.55;;
10473;SDS011;5284;50.446;7.904;2023-06-14T20:49:45;4.53;;;2.95;;
10473;SDS011;5284;50.446;7.904;2023-06-14T20:54:49;9.65;;;2.55;;
10473;SDS011;5284;50.446;7.904;2023-06-14T20:59:53;4.18;;;2.65;;
10473;SDS011;5284;50.446;7.904;2023-06-14T21:04:56;4.57;;;2.30;;
10473;SDS011;5284;50.446;7.904;2023-06-14T21:10:00;3.08;;;2.10;;
10473;SDS011;5284;50.446;7.904;2023-06-14T21:15:05;5.20;;;2.63;;
10473;SDS011;5284;50.446;7.904;2023-06-14T21:20:10;4.03;;;2.65;;
10473;SDS011;5284;50.446;7.904;2023-06-14T21:25:13;10.63;;;2.97;;
10473;SDS011;5284;50.446;7.904;2023-06-14T21:30:17;6.57;;;2.67;;
10473;SDS011;5284;50.446;7.904;2023-06-14T21:35:33;3.80;;;2.67;;
10473;SDS011;5284;50.446;7.904;2023-06-14T21:40:36;11.45;;;2.22;;
10473;SDS011;5284;50.446;7.904;2023-06-14T21:45:41;5.93;;;2.53;;
10473;SDS011;5284;50.446;7.904;2023-06-14T21:50:45;8.85;;;2.38;;
10473;SDS011;5284;50.446;7.904;2023-06-14T21:55:48;6.75;;;2.63;;
10473;SDS011;5284;50.446;7.904;2023-06-14T22:00:52;3.47;;;1.98;;
10473;SDS011;5284;50.446;7.904;2023-06-14T22:05:55;5.35;;;2.28;;
10473;SDS011;5284;50.446;7.904;2023-06-14T22:10:58;3.78;;;2.10;;
10473;SDS011;5284;50.446;7.904;2023-06-14T22:16:04;2.85;;;2.28;;
10473;SDS011;5284;50.446;7.904;2023-06-14T22:21:08;13.07;;;2.30;;
10473;SDS011;5284;50.446;7.904;2023-06-14T22:26:16;5.70;;;2.60;;
10473;SDS011;5284;50.446;7.904;2023-06-14T22:31:38;3.72;;;2.42;;
10473;SDS011;5284;50.446;7.904;2023-06-14T22:36:43;4.87;;;2.50;;
10473;SDS011;5284;50.446;7.904;2023-06-14T22:41:49;4.03;;;2.40;;
10473;SDS011;5284;50.446;7.904;2023-06-14T22:46:53;9.43;;;2.40;;
10473;SDS011;5284;50.446;7.904;2023-06-14T22:51:57;7.97;;;2.20;;
10473;SDS011;5284;50.446;7.904;2023-06-14T22:57:03;3.90;;;2.40;;
10473;SDS011;5284;50.446;7.904;2023-06-14T23:02:10;3.72;;;2.70;;
10473;SDS011;5284;50.446;7.904;2023-06-14T23:07:14;3.80;;;2.38;;
10473;SDS011;5284;50.446;7.904;2023-06-14T23:12:18;4.22;;;2.55;;
10473;SDS011;5284;50.446;7.904;2023-06-14T23:17:22;3.17;;;2.38;;
10473;SDS011;5284;50.446;7.904;2023-06-14T23:22:25;4.57;;;2.35;;
10473;SDS011;5284;50.446;7.904;2023-06-14T23:27:29;3.95;;;2.78;;
10473;SDS011;5284;50.446;7.904;2023-06-14T23:32:35;3.25;;;2.15;;
10473;SDS011;5284;50.446;7.904;2023-06-14T23:37:39;3.53;;;2.50;;
10473;SDS011;5284;50.446;7.904;2023-06-14T23:42:42;4.03;;;2.83;;
10473;SDS011;5284;50.446;7.904;2023-06-14T23:47:47;5.03;;;2.85;;
10473;SDS011;5284;50.446;7.904;2023-06-14T23:52:50;5.50;;;2.85;;
10473;SDS011;5284;50.446;7.904;2023-06-14T23:57:58;4.45;;;2.55;;
